Cornwall Bridge, Connecticut
Current Conditions -  °F | °C
As of 8:48 AM on Monday 22 Dec 2014 (Local Time) from KOXC Reporting Station
Overcast Overcast  
Wind Chill: 27°   Ceiling: 4000
Heat Index: 34°   Visibility: 8mi
Dew Point: 27°   Wind: 8mph
Humidity: 75%   Direction: 90°E
Pressure: 30.33"   Gusts: NA
Location:  41.82°N, 73.37°W
Report Text: KOXC 221348Z 09007KT 8SM SCT030 OVC040 01/M03 A3033
Loading
Personal Weather Stations






























Interactive Weather Map New forecast layout! Learn more

10-Day Weather Forecast

Advertisements
Track Severe Weather on mobile